createdAt,value
2023-01-04T00:01:26.580Z,15.60
2023-01-04T00:03:28.692Z,10.82
2023-01-04T00:05:30.790Z,13.90
2023-01-04T00:07:32.810Z,17.67
2023-01-04T00:09:34.859Z,21.77
2023-01-04T00:11:36.915Z,12.80
2023-01-04T00:13:39.441Z,16.15
2023-01-04T00:15:41.482Z,20.20
2023-01-04T00:17:44.163Z,13.88
2023-01-04T00:19:46.052Z,19.00
2023-01-04T00:21:48.179Z,13.88
2023-01-04T00:23:52.951Z,15.23
2023-01-04T00:25:54.933Z,11.40
2023-01-04T00:27:56.949Z,14.50
2023-01-04T00:29:58.903Z,12.52
2023-01-04T00:32:00.812Z,14.57
2023-01-04T00:34:04.653Z,15.63
2023-01-04T00:36:09.142Z,9.70
2023-01-04T00:38:11.130Z,11.43
2023-01-04T00:40:13.214Z,12.52
2023-01-04T00:42:15.367Z,8.52
2023-01-04T00:44:18.251Z,13.18
2023-01-04T00:46:20.245Z,13.10
2023-01-04T00:48:22.635Z,12.98
2023-01-04T00:50:24.722Z,15.18
2023-01-04T00:52:26.730Z,15.45
2023-01-04T00:54:28.984Z,16.00
2023-01-04T00:56:32.533Z,10.77
2023-01-04T00:58:34.749Z,14.77
2023-01-04T01:00:36.929Z,8.82
2023-01-04T01:02:39.217Z,12.48
2023-01-04T01:04:41.534Z,4.03
2023-01-04T01:06:43.895Z,7.68
2023-01-04T01:08:45.801Z,8.65
2023-01-04T01:10:47.901Z,7.47
2023-01-04T01:12:49.882Z,7.00
2023-01-04T01:14:54.794Z,8.32
2023-01-04T01:17:00.753Z,5.40
2023-01-04T01:19:02.785Z,11.23
2023-01-04T01:21:06.556Z,16.67
2023-01-04T01:23:08.550Z,18.77
2023-01-04T01:25:10.586Z,11.80
2023-01-04T01:27:12.646Z,12.75
2023-01-04T01:29:14.992Z,7.40
2023-01-04T01:31:22.331Z,13.05
2023-01-04T01:33:24.690Z,6.93
2023-01-04T01:35:27.190Z,10.02
2023-01-04T01:37:29.416Z,9.88
2023-01-04T01:39:31.591Z,15.23
2023-01-04T01:41:35.270Z,16.08
2023-01-04T01:43:48.436Z,16.45
2023-01-04T01:45:57.411Z,18.08
2023-01-04T01:48:05.705Z,10.02
2023-01-04T01:50:20.549Z,9.90
2023-01-04T01:52:27.129Z,13.13
2023-01-04T01:54:34.940Z,16.33
2023-01-04T01:56:40.140Z,8.75
2023-01-04T01:58:49.090Z,14.35
2023-01-04T02:00:51.392Z,9.68
2023-01-04T02:02:58.099Z,17.27
2023-01-04T02:05:02.981Z,14.35
2023-01-04T02:07:06.596Z,13.85
2023-01-04T02:09:10.109Z,7.25
2023-01-04T02:11:12.412Z,11.35
2023-01-04T02:13:19.221Z,15.00
2023-01-04T02:15:25.492Z,13.00
2023-01-04T02:17:38.752Z,13.55
2023-01-04T02:19:45.594Z,13.15
2023-01-04T02:21:58.456Z,15.48
2023-01-04T02:24:08.995Z,14.23
2023-01-04T02:26:17.371Z,20.85
2023-01-04T02:28:25.775Z,16.10
2023-01-04T02:30:34.294Z,19.05
2023-01-04T02:32:39.974Z,19.77
2023-01-04T02:34:46.652Z,16.40
2023-01-04T02:36:54.950Z,18.30
2023-01-04T02:39:03.360Z,15.75
2023-01-04T02:41:14.307Z,15.65
2023-01-04T02:43:30.534Z,19.00
2023-01-04T02:45:40.338Z,15.52
2023-01-04T02:47:46.546Z,22.55
2023-01-04T02:49:51.835Z,20.92
2023-01-04T02:51:54.050Z,16.80
2023-01-04T02:53:59.351Z,13.43
2023-01-04T02:56:07.897Z,23.08
2023-01-04T02:58:19.693Z,17.80
2023-01-04T03:01:01.198Z,14.98
2023-01-04T03:03:10.079Z,17.05
2023-01-04T03:05:19.371Z,14.50
2023-01-04T03:07:27.276Z,13.93
2023-01-04T03:09:34.509Z,15.80
2023-01-04T03:11:47.331Z,14.82
2023-01-04T03:13:49.633Z,15.90
2023-01-04T03:15:56.279Z,17.85
2023-01-04T03:18:05.889Z,14.32
2023-01-04T03:20:11.970Z,10.90
2023-01-04T03:22:20.734Z,14.63
2023-01-04T03:24:26.231Z,12.52
2023-01-04T03:26:37.568Z,10.93
2023-01-04T03:28:45.198Z,10.95
2023-01-04T03:30:57.455Z,13.05
2023-01-04T03:33:08.821Z,11.48
2023-01-04T03:35:14.511Z,12.65
2023-01-04T03:37:26.016Z,9.65
2023-01-04T03:39:38.007Z,14.63
2023-01-04T03:41:52.113Z,16.20
2023-01-04T03:44:13.057Z,12.73
2023-01-04T03:46:30.699Z,11.07
2023-01-04T03:48:40.042Z,10.02
2023-01-04T03:50:48.067Z,10.38
2023-01-04T03:52:52.476Z,10.52
2023-01-04T03:54:57.275Z,9.85
2023-01-04T03:57:00.798Z,15.40
2023-01-04T03:59:03.635Z,7.72
2023-01-04T04:01:06.885Z,8.65
2023-01-04T04:03:09.339Z,7.20
2023-01-04T04:05:22.134Z,9.88
2023-01-04T04:07:27.490Z,10.45
2023-01-04T04:09:29.650Z,6.43
2023-01-04T04:11:31.868Z,7.18
2023-01-04T04:13:34.216Z,9.75
2023-01-04T04:15:37.112Z,9.23
2023-01-04T04:17:39.431Z,7.47
2023-01-04T04:19:41.756Z,5.13
2023-01-04T04:21:43.998Z,8.50
2023-01-04T04:23:46.340Z,5.57
2023-01-04T04:25:48.592Z,5.25
2023-01-04T04:27:51.055Z,9.30
2023-01-04T04:29:53.255Z,6.65
2023-01-04T04:31:55.556Z,6.18
2023-01-04T04:33:57.905Z,8.23
2023-01-04T04:36:00.139Z,9.35
2023-01-04T04:38:02.561Z,13.23
2023-01-04T04:40:05.775Z,3.72
2023-01-04T04:42:08.876Z,2.42
2023-01-04T04:44:15.655Z,6.55
2023-01-04T04:46:17.868Z,3.78
2023-01-04T04:48:20.208Z,3.85
2023-01-04T04:50:22.552Z,7.38
2023-01-04T04:52:24.737Z,6.95
2023-01-04T04:54:27.062Z,7.57
2023-01-04T04:56:29.273Z,5.55
2023-01-04T04:58:31.534Z,3.83
2023-01-04T05:00:33.811Z,6.53
2023-01-04T05:02:36.322Z,6.55
2023-01-04T05:04:38.733Z,7.85
2023-01-04T05:06:40.945Z,4.53
2023-01-04T05:08:43.414Z,6.88
2023-01-04T05:10:45.577Z,5.28
2023-01-04T05:12:57.489Z,7.90
2023-01-04T05:15:00.167Z,3.67
2023-01-04T05:17:02.532Z,6.35
2023-01-04T05:19:05.037Z,4.70
2023-01-04T05:21:07.249Z,6.65
2023-01-04T05:23:10.852Z,9.93
2023-01-04T05:25:13.196Z,4.63
2023-01-04T05:27:15.310Z,5.50
2023-01-04T05:29:20.547Z,7.45
2023-01-04T05:31:22.960Z,3.17
2023-01-04T05:33:28.052Z,3.90
2023-01-04T05:35:30.375Z,3.92
2023-01-04T05:37:32.557Z,5.50
2023-01-04T05:39:34.809Z,6.55
2023-01-04T05:41:40.076Z,4.25
2023-01-04T05:43:42.242Z,3.90
2023-01-04T05:45:47.684Z,6.65
2023-01-04T05:47:51.283Z,6.90
2023-01-04T05:49:53.931Z,6.28
2023-01-04T05:51:56.155Z,5.38
2023-01-04T05:53:58.312Z,3.95
2023-01-04T05:56:00.594Z,6.05
2023-01-04T05:58:03.459Z,12.23
2023-01-04T06:00:08.131Z,10.20
2023-01-04T06:02:14.784Z,7.13
2023-01-04T06:04:17.032Z,9.90
2023-01-04T06:06:19.286Z,9.25
2023-01-04T06:08:21.597Z,10.20
2023-01-04T06:10:23.896Z,7.78
2023-01-04T06:12:26.251Z,12.20
2023-01-04T06:14:28.554Z,5.38
2023-01-04T06:16:31.303Z,12.18
2023-01-04T06:18:33.749Z,9.95
2023-01-04T06:20:36.140Z,9.52
2023-01-04T06:22:40.853Z,5.90
2023-01-04T06:24:44.462Z,8.75
2023-01-04T06:26:46.994Z,10.20
2023-01-04T06:28:49.192Z,8.93
2023-01-04T06:30:51.489Z,9.48
2023-01-04T06:32:53.972Z,10.60
2023-01-04T06:34:56.150Z,10.65
2023-01-04T06:36:58.559Z,7.95
2023-01-04T06:39:01.086Z,13.65
2023-01-04T06:41:03.303Z,7.35
2023-01-04T06:43:05.504Z,10.07
2023-01-04T06:45:09.196Z,10.45
2023-01-04T06:47:11.544Z,8.75
2023-01-04T06:49:17.694Z,10.30
2023-01-04T06:51:20.795Z,16.38
2023-01-04T06:53:22.998Z,14.32
2023-01-04T06:55:25.339Z,7.00
2023-01-04T06:57:28.206Z,10.05
2023-01-04T06:59:30.370Z,13.25
2023-01-04T07:01:33.045Z,11.18
2023-01-04T07:03:35.505Z,6.35
2023-01-04T07:05:37.775Z,10.70
2023-01-04T07:07:40.071Z,8.85
2023-01-04T07:09:42.329Z,13.50
2023-01-04T07:11:44.563Z,12.18
2023-01-04T07:13:46.839Z,10.50
2023-01-04T07:15:49.113Z,9.70
2023-01-04T07:17:51.733Z,8.63
2023-01-04T07:19:54.010Z,10.20
2023-01-04T07:21:56.402Z,4.30
2023-01-04T07:23:58.635Z,8.60
2023-01-04T07:26:03.328Z,5.05
2023-01-04T07:28:05.709Z,6.72
2023-01-04T07:30:08.874Z,10.82
2023-01-04T07:32:14.053Z,11.88
2023-01-04T07:34:18.204Z,10.60
2023-01-04T07:36:20.471Z,7.88
2023-01-04T07:38:22.832Z,8.25
2023-01-04T07:40:25.272Z,12.52
2023-01-04T07:42:27.480Z,13.32
2023-01-04T07:44:29.791Z,8.50
2023-01-04T07:46:33.034Z,7.22
2023-01-04T07:48:35.516Z,7.70
2023-01-04T07:50:37.793Z,8.95
2023-01-04T07:52:40.062Z,8.00
2023-01-04T07:54:42.572Z,10.45
2023-01-04T07:56:46.192Z,7.97
2023-01-04T07:58:48.391Z,6.88
2023-01-04T08:00:50.806Z,8.98
2023-01-04T08:02:53.461Z,11.02
2023-01-04T08:04:57.084Z,9.38
2023-01-04T08:06:59.424Z,11.23
2023-01-04T08:09:02.970Z,6.78
2023-01-04T08:11:09.262Z,7.68
2023-01-04T08:13:11.535Z,6.57
2023-01-04T08:15:15.518Z,8.80
2023-01-04T08:17:17.724Z,9.85
2023-01-04T08:19:22.045Z,5.85
2023-01-04T08:21:25.556Z,5.80
2023-01-04T08:23:27.767Z,9.95
2023-01-04T08:25:29.939Z,6.13
2023-01-04T08:27:33.216Z,5.07
2023-01-04T08:29:35.614Z,6.28
2023-01-04T08:31:39.128Z,6.28
2023-01-04T08:33:42.519Z,7.90
2023-01-04T08:35:44.940Z,7.15
2023-01-04T08:37:47.159Z,6.75
2023-01-04T08:39:50.120Z,4.53
2023-01-04T08:42:00.744Z,7.38
2023-01-04T08:44:05.354Z,6.45
2023-01-04T08:46:08.074Z,10.80
2023-01-04T08:48:10.398Z,4.18
2023-01-04T08:50:12.797Z,10.30
2023-01-04T08:52:16.263Z,7.50
2023-01-04T08:54:18.922Z,5.38
2023-01-04T08:56:21.187Z,13.10
2023-01-04T08:58:24.076Z,8.15
2023-01-04T09:00:26.742Z,8.98
2023-01-04T09:02:30.173Z,6.22
2023-01-04T09:04:32.559Z,8.77
2023-01-04T09:06:35.624Z,5.05
2023-01-04T09:08:39.383Z,9.50
2023-01-04T09:10:41.638Z,4.88
2023-01-04T09:12:43.959Z,9.18
2023-01-04T09:14:46.225Z,7.47
2023-01-04T09:16:48.418Z,8.57
2023-01-04T09:18:51.116Z,7.95
2023-01-04T09:20:53.339Z,6.70
2023-01-04T09:22:58.532Z,8.15
2023-01-04T09:25:00.716Z,9.63
2023-01-04T09:27:04.828Z,7.07
2023-01-04T09:29:07.483Z,11.90
2023-01-04T09:31:14.883Z,6.10
2023-01-04T09:33:17.272Z,10.85
2023-01-04T09:35:19.519Z,11.85
2023-01-04T09:37:21.714Z,6.55
2023-01-04T09:39:26.525Z,8.27
2023-01-04T09:41:31.050Z,7.53
2023-01-04T09:43:43.431Z,7.32
2023-01-04T09:45:54.589Z,8.75
2023-01-04T09:48:05.338Z,11.20
2023-01-04T09:52:19.909Z,13.57
2023-01-04T09:56:36.882Z,8.80
2023-01-04T09:58:42.222Z,15.38
2023-01-04T10:00:49.021Z,12.15
2023-01-04T10:02:59.903Z,12.50
2023-01-04T10:05:03.720Z,10.18
2023-01-04T10:07:06.145Z,10.35
2023-01-04T10:09:13.932Z,14.90
2023-01-04T10:11:19.876Z,7.72
2023-01-04T10:13:28.432Z,11.48
2023-01-04T10:15:35.298Z,13.65
2023-01-04T10:18:51.943Z,9.60
2023-01-04T10:22:37.883Z,10.57
2023-01-04T10:24:49.409Z,13.23
2023-01-04T10:27:00.119Z,9.93
2023-01-04T10:31:38.611Z,14.27
2023-01-04T10:33:47.466Z,12.45
2023-01-04T10:35:50.619Z,14.50
2023-01-04T10:37:58.411Z,8.25
2023-01-04T10:40:01.774Z,12.43
2023-01-04T10:42:10.590Z,11.23
2023-01-04T10:44:16.211Z,11.68
2023-01-04T10:46:25.897Z,14.10
2023-01-04T10:48:34.351Z,12.60
2023-01-04T10:50:37.275Z,17.85
2023-01-04T10:52:46.120Z,18.35
2023-01-04T10:54:53.916Z,11.00
2023-01-04T10:57:07.153Z,13.25
2023-01-04T10:59:12.931Z,8.75
2023-01-04T11:01:26.261Z,15.52
2023-01-04T11:03:35.520Z,19.30
2023-01-04T11:05:45.214Z,10.32
2023-01-04T11:07:56.195Z,19.40
2023-01-04T11:10:07.141Z,9.20
2023-01-04T11:12:12.287Z,14.55
2023-01-04T11:14:15.911Z,18.25
2023-01-04T11:16:18.409Z,13.05
2023-01-04T11:18:20.944Z,14.82
2023-01-04T11:20:26.869Z,16.15
2023-01-04T11:22:32.396Z,15.65
2023-01-04T11:24:36.074Z,13.18
2023-01-04T11:26:43.793Z,17.33
2023-01-04T11:28:52.123Z,18.77
2023-01-04T11:30:59.536Z,14.30
2023-01-04T11:33:12.825Z,18.58
2023-01-04T11:35:15.094Z,12.98
2023-01-04T11:37:23.551Z,14.23
2023-01-04T11:39:27.661Z,19.45
2023-01-04T11:41:31.192Z,14.27
2023-01-04T11:43:36.367Z,14.55
2023-01-04T11:45:38.843Z,22.25
2023-01-04T11:47:50.796Z,18.52
2023-01-04T11:49:53.220Z,17.65
2023-01-04T11:51:55.545Z,14.18
2023-01-04T11:53:59.336Z,14.48
2023-01-04T11:56:08.450Z,19.85
2023-01-04T11:58:13.484Z,13.65
2023-01-04T12:00:17.392Z,14.00
2023-01-04T12:02:58.602Z,12.57
2023-01-04T12:04:46.810Z,9.75
2023-01-04T12:06:52.673Z,13.18
2023-01-04T12:08:57.933Z,21.83
2023-01-04T12:11:03.962Z,13.20
2023-01-04T12:13:10.912Z,20.88
2023-01-04T12:15:20.870Z,15.23
2023-01-04T12:17:29.533Z,18.17
2023-01-04T12:19:32.272Z,15.00
2023-01-04T12:21:36.137Z,12.30
2023-01-04T12:23:38.542Z,19.80
2023-01-04T12:25:46.101Z,20.02
2023-01-04T12:27:51.907Z,16.88
2023-01-04T12:30:00.930Z,16.50
2023-01-04T12:32:08.501Z,20.13
2023-01-04T12:34:14.301Z,13.07
2023-01-04T12:36:20.809Z,11.88
2023-01-04T12:38:46.113Z,18.75
2023-01-04T12:40:49.197Z,18.35
2023-01-04T12:42:57.630Z,16.67
2023-01-04T12:45:03.130Z,13.23
2023-01-04T12:47:31.342Z,16.25
2023-01-04T12:51:52.042Z,19.25
2023-01-04T12:54:06.271Z,18.38
2023-01-04T12:56:08.558Z,22.05
2023-01-04T13:00:54.029Z,20.75
2023-01-04T13:03:03.040Z,16.70
2023-01-04T13:05:54.340Z,20.92
2023-01-04T13:07:43.953Z,18.90
2023-01-04T13:09:52.319Z,22.17
2023-01-04T13:12:00.732Z,18.23
2023-01-04T13:14:10.393Z,15.07
2023-01-04T13:16:16.051Z,18.25
2023-01-04T13:18:24.503Z,19.30
2023-01-04T13:20:30.913Z,15.48
2023-01-04T13:22:35.373Z,18.50
2023-01-04T13:24:39.329Z,19.08
2023-01-04T13:26:46.211Z,17.42
2023-01-04T13:28:53.528Z,22.77
2023-01-04T13:31:01.107Z,23.53
2023-01-04T13:33:28.013Z,25.17
2023-01-04T13:35:30.976Z,25.98
2023-01-04T13:37:36.572Z,19.20
2023-01-04T13:39:43.398Z,17.73
2023-01-04T13:41:47.238Z,12.77
2023-01-04T13:43:54.470Z,19.35
2023-01-04T13:46:08.794Z,15.00
2023-01-04T13:48:15.288Z,23.35
2023-01-04T13:50:27.291Z,23.23
2023-01-04T13:55:09.988Z,14.13
2023-01-04T13:57:15.293Z,21.40
2023-01-04T13:59:20.663Z,22.52
2023-01-04T14:01:26.031Z,16.73
2023-01-04T14:03:33.603Z,24.20
2023-01-04T14:05:36.764Z,18.70
2023-01-04T14:07:42.712Z,13.00
2023-01-04T14:09:49.353Z,19.85
2023-01-04T14:12:07.340Z,19.92
2023-01-04T14:14:21.213Z,18.52
2023-01-04T14:16:26.186Z,13.13
2023-01-04T14:18:31.664Z,14.20
2023-01-04T14:20:37.063Z,17.02
2023-01-04T14:22:42.776Z,17.30
2023-01-04T14:27:13.574Z,19.70
2023-01-04T14:29:22.160Z,23.17
2023-01-04T14:31:30.526Z,13.43
2023-01-04T14:33:39.226Z,10.48
2023-01-04T14:35:46.729Z,17.27
2023-01-04T14:37:52.232Z,23.20
2023-01-04T14:39:54.624Z,20.27
2023-01-04T14:41:57.833Z,19.60
2023-01-04T14:44:01.078Z,16.20
2023-01-04T14:46:03.799Z,20.85
2023-01-04T14:48:06.679Z,17.85
2023-01-04T14:50:09.639Z,17.98
2023-01-04T14:52:21.499Z,17.10
2023-01-04T14:54:25.779Z,20.65
2023-01-04T14:56:28.182Z,18.42
2023-01-04T14:58:30.463Z,21.67
2023-01-04T15:00:32.794Z,19.33
2023-01-04T15:02:35.477Z,23.35
2023-01-04T15:04:37.964Z,18.25
2023-01-04T15:06:49.424Z,17.52
2023-01-04T15:08:52.863Z,19.60
2023-01-04T15:11:00.015Z,16.73
2023-01-04T15:13:04.518Z,17.55
2023-01-04T15:15:07.731Z,21.73
2023-01-04T15:17:10.682Z,22.67
2023-01-04T15:19:13.206Z,18.38
2023-01-04T15:21:15.597Z,21.25
2023-01-04T15:23:17.823Z,24.40
2023-01-04T15:25:20.178Z,21.15
2023-01-04T15:27:27.013Z,21.75
2023-01-04T15:29:32.876Z,17.58
2023-01-04T15:31:39.499Z,21.17
2023-01-04T15:33:42.659Z,22.35
2023-01-04T15:35:45.652Z,17.02
2023-01-04T15:37:48.311Z,13.45
2023-01-04T15:39:52.278Z,19.20
2023-01-04T15:41:59.499Z,16.48
2023-01-04T15:44:02.760Z,18.02
2023-01-04T15:46:07.898Z,22.25
2023-01-04T15:48:12.827Z,17.65
2023-01-04T15:50:15.249Z,18.85
2023-01-04T15:52:17.533Z,24.30
2023-01-04T15:54:22.090Z,26.02
2023-01-04T15:56:24.385Z,28.88
2023-01-04T15:58:26.518Z,18.33
2023-01-04T16:00:29.122Z,18.95
2023-01-04T16:02:32.487Z,17.55
2023-01-04T16:04:36.032Z,18.13
2023-01-04T16:06:39.013Z,18.13
2023-01-04T16:08:41.753Z,22.45
2023-01-04T16:10:44.174Z,22.42
2023-01-04T16:12:51.390Z,25.05
2023-01-04T16:14:58.684Z,14.60
2023-01-04T16:17:00.991Z,30.23
2023-01-04T16:19:03.316Z,19.73
2023-01-04T16:21:07.717Z,21.90
2023-01-04T16:23:09.924Z,21.45
2023-01-04T16:25:13.026Z,17.67
2023-01-04T16:27:15.462Z,19.33
2023-01-04T16:29:18.422Z,19.38
2023-01-04T16:31:21.612Z,21.08
2023-01-04T16:33:23.929Z,23.65
2023-01-04T16:35:26.129Z,17.73
2023-01-04T16:37:29.373Z,22.48
2023-01-04T16:40:05.398Z,21.73
2023-01-04T16:41:53.852Z,23.95
2023-01-04T16:43:59.776Z,22.63
2023-01-04T16:46:17.766Z,23.55
2023-01-04T16:48:20.071Z,27.35
2023-01-04T16:50:22.379Z,19.83
2023-01-04T16:52:27.396Z,18.83
2023-01-04T16:54:29.674Z,13.95
2023-01-04T16:56:31.976Z,29.00
2023-01-04T16:58:34.588Z,18.38
2023-01-04T17:00:36.857Z,24.45
2023-01-04T17:02:39.271Z,18.40
2023-01-04T17:04:41.697Z,25.33
2023-01-04T17:06:46.190Z,26.80
2023-01-04T17:08:51.399Z,29.40
2023-01-04T17:10:53.658Z,24.38
2023-01-04T17:12:55.888Z,20.42
2023-01-04T17:15:40.790Z,15.55
2023-01-04T17:17:20.631Z,25.50
2023-01-04T17:19:23.009Z,23.15
2023-01-04T17:21:35.783Z,23.73
2023-01-04T17:23:42.479Z,14.82
2023-01-04T17:25:44.755Z,27.15
2023-01-04T17:27:47.149Z,17.40
2023-01-04T17:29:49.435Z,21.50
2023-01-04T17:31:51.740Z,17.08
2023-01-04T17:33:54.471Z,20.88
2023-01-04T17:35:57.909Z,24.33
2023-01-04T17:38:00.135Z,19.73
2023-01-04T17:40:02.647Z,24.88
2023-01-04T17:42:05.063Z,26.92
2023-01-04T17:44:07.702Z,24.00
2023-01-04T17:46:16.386Z,20.83
2023-01-04T17:48:22.996Z,25.65
2023-01-04T17:50:25.229Z,26.65
2023-01-04T17:52:31.405Z,28.83
2023-01-04T17:54:34.190Z,23.58
2023-01-04T17:56:37.990Z,18.85
2023-01-04T17:58:40.796Z,31.52
2023-01-04T18:00:43.074Z,20.45
2023-01-04T18:02:45.555Z,23.35
2023-01-04T18:04:47.976Z,23.80
2023-01-04T18:06:50.313Z,26.83
2023-01-04T18:08:52.647Z,28.92
2023-01-04T18:11:11.747Z,27.33
2023-01-04T18:13:14.720Z,27.00
2023-01-04T18:15:17.221Z,19.27
2023-01-04T18:17:19.551Z,25.33
2023-01-04T18:19:23.751Z,22.63
2023-01-04T18:21:31.012Z,18.88
2023-01-04T18:23:33.570Z,21.13
2023-01-04T18:25:35.964Z,26.00
2023-01-04T18:27:38.209Z,24.27
2023-01-04T18:29:40.501Z,23.05
2023-01-04T18:31:43.061Z,16.85
2023-01-04T18:33:52.236Z,33.42
2023-01-04T18:35:54.555Z,22.85
2023-01-04T18:37:57.092Z,18.70
2023-01-04T18:39:59.558Z,32.10
2023-01-04T18:42:02.352Z,22.73
2023-01-04T18:44:31.619Z,23.20
2023-01-04T18:46:28.918Z,33.15
2023-01-04T18:48:31.213Z,26.27
2023-01-04T18:50:35.671Z,25.73
2023-01-04T18:52:37.995Z,27.25
2023-01-04T18:54:40.305Z,24.50
2023-01-04T18:56:42.635Z,27.75
2023-01-04T18:58:45.429Z,28.25
2023-01-04T19:00:47.743Z,22.35
2023-01-04T19:02:50.207Z,28.58
2023-01-04T19:04:52.602Z,27.15
2023-01-04T19:06:55.527Z,28.98
2023-01-04T19:09:02.926Z,29.63
2023-01-04T19:11:08.673Z,32.60
2023-01-04T19:13:11.644Z,21.27
2023-01-04T19:15:13.963Z,31.38
2023-01-04T19:17:17.401Z,26.63
2023-01-04T19:19:19.717Z,25.55
2023-01-04T19:21:21.968Z,26.80
2023-01-04T19:23:24.302Z,28.00
2023-01-04T19:25:28.688Z,29.40
2023-01-04T19:27:31.089Z,24.95
2023-01-04T19:29:34.365Z,29.88
2023-01-04T19:31:36.608Z,26.27
2023-01-04T19:33:38.833Z,28.13
2023-01-04T19:35:43.753Z,38.50
2023-01-04T19:37:46.071Z,31.10
2023-01-04T19:39:48.523Z,26.08
2023-01-04T19:41:50.836Z,25.75
2023-01-04T19:43:53.269Z,23.92
2023-01-04T19:45:55.652Z,36.10
2023-01-04T19:47:58.150Z,23.90
2023-01-04T19:50:00.504Z,25.00
2023-01-04T19:52:02.826Z,26.77
2023-01-04T19:54:05.095Z,22.13
2023-01-04T19:56:08.197Z,31.88
2023-01-04T19:58:10.572Z,25.48
2023-01-04T20:00:13.960Z,25.08
2023-01-04T20:02:16.262Z,33.58
2023-01-04T20:04:18.860Z,27.63
2023-01-04T20:06:21.219Z,31.40
2023-01-04T20:08:23.471Z,33.22
2023-01-04T20:10:25.678Z,24.65
2023-01-04T20:12:27.971Z,29.77
2023-01-04T20:14:31.033Z,28.67
2023-01-04T20:16:33.359Z,26.73
2023-01-04T20:18:36.369Z,38.38
2023-01-04T20:20:42.643Z,28.35
2023-01-04T20:22:45.114Z,31.38
2023-01-04T20:24:47.313Z,34.40
2023-01-04T20:26:49.649Z,24.05
2023-01-04T20:28:52.487Z,22.60
2023-01-04T20:31:01.047Z,22.25
2023-01-04T20:33:03.504Z,29.05
2023-01-04T20:35:06.333Z,28.25
2023-01-04T20:37:08.780Z,36.47
2023-01-04T20:39:11.428Z,27.52
2023-01-04T20:41:17.163Z,28.00
2023-01-04T20:43:22.469Z,28.33
2023-01-04T20:45:24.753Z,22.75
2023-01-04T20:47:27.078Z,33.47
2023-01-04T20:49:29.453Z,29.38
2023-01-04T20:51:31.772Z,31.92
2023-01-04T20:53:34.347Z,31.42
2023-01-04T20:55:40.567Z,27.95
2023-01-04T20:57:43.015Z,37.08
2023-01-04T20:59:45.601Z,29.25
2023-01-04T21:01:48.047Z,33.15
2023-01-04T21:03:50.660Z,30.35
2023-01-04T21:05:52.982Z,26.30
2023-01-04T21:07:55.387Z,28.65
2023-01-04T21:09:57.614Z,24.27
2023-01-04T21:12:04.973Z,27.70
2023-01-04T21:14:12.141Z,23.25
2023-01-04T21:16:15.442Z,36.47
2023-01-04T21:18:17.841Z,28.95
2023-01-04T21:20:21.854Z,21.00
2023-01-04T21:22:24.303Z,25.25
2023-01-04T21:24:26.604Z,22.17
2023-01-04T21:26:28.965Z,23.13
2023-01-04T21:28:31.203Z,25.02
2023-01-04T21:30:33.430Z,31.50
2023-01-04T21:32:35.765Z,30.80
2023-01-04T21:34:38.215Z,18.08
2023-01-04T21:36:40.500Z,31.05
2023-01-04T21:38:43.143Z,26.08
2023-01-04T21:40:45.491Z,25.77
2023-01-04T21:42:47.717Z,19.63
2023-01-04T21:44:50.016Z,25.77
2023-01-04T21:46:52.270Z,24.48
2023-01-04T21:48:56.732Z,30.67
2023-01-04T21:51:00.928Z,26.90
2023-01-04T21:53:03.322Z,28.65
2023-01-04T21:55:06.154Z,20.63
2023-01-04T21:57:08.535Z,26.85
2023-01-04T21:59:10.938Z,29.58
2023-01-04T22:01:16.675Z,21.70
2023-01-04T22:03:19.069Z,27.67
2023-01-04T22:05:21.479Z,27.85
2023-01-04T22:07:23.871Z,16.48
2023-01-04T22:09:26.319Z,25.35
2023-01-04T22:11:28.652Z,20.48
2023-01-04T22:13:31.312Z,23.33
2023-01-04T22:15:33.688Z,22.50
2023-01-04T22:17:35.995Z,26.02
2023-01-04T22:19:38.234Z,23.60
2023-01-04T22:21:40.993Z,32.13
2023-01-04T22:23:43.357Z,26.55
2023-01-04T22:25:45.722Z,25.15
2023-01-04T22:27:51.738Z,33.75
2023-01-04T22:29:54.022Z,33.85
2023-01-04T22:31:56.251Z,27.50
2023-01-04T22:33:58.570Z,37.63
2023-01-04T22:36:06.225Z,22.52
2023-01-04T22:38:08.765Z,29.98
2023-01-04T22:40:12.519Z,23.77
2023-01-04T22:42:14.835Z,25.80
2023-01-04T22:44:17.214Z,24.80
2023-01-04T22:46:19.501Z,28.92
2023-01-04T22:48:21.759Z,21.00
2023-01-04T22:50:24.312Z,22.60
2023-01-04T22:52:26.739Z,26.63
2023-01-04T22:54:30.674Z,22.85
2023-01-04T22:56:33.061Z,32.88
2023-01-04T22:58:36.726Z,20.20
2023-01-04T23:00:39.823Z,25.58
2023-01-04T23:02:42.778Z,20.35
2023-01-04T23:04:45.084Z,15.95
2023-01-04T23:06:47.320Z,29.42
2023-01-04T23:08:56.358Z,29.67
2023-01-04T23:11:07.401Z,24.73
2023-01-04T23:13:09.872Z,20.65
2023-01-04T23:15:12.995Z,27.75
2023-01-04T23:17:15.383Z,21.40
2023-01-04T23:19:17.659Z,26.30
2023-01-04T23:21:19.919Z,22.88
2023-01-04T23:23:22.251Z,21.50
2023-01-04T23:25:24.849Z,25.90
2023-01-04T23:27:27.171Z,26.98
2023-01-04T23:29:29.881Z,24.40
2023-01-04T23:31:33.405Z,19.55
2023-01-04T23:33:37.082Z,27.77
2023-01-04T23:35:39.548Z,18.90
2023-01-04T23:37:41.973Z,27.85
2023-01-04T23:39:44.358Z,26.60
2023-01-04T23:41:47.179Z,27.55
2023-01-04T23:43:49.789Z,28.13
2023-01-04T23:45:52.416Z,20.33
2023-01-04T23:47:54.773Z,25.45
2023-01-04T23:49:57.103Z,26.13
2023-01-04T23:52:00.153Z,29.23
2023-01-04T23:54:02.492Z,30.40
2023-01-04T23:56:07.495Z,25.40
2023-01-04T23:58:09.889Z,25.40
